PILOTS ONLINE: 270    ATC ONLINE: 31

Location

City Lompoc
Country  United States
Latitude 34° 44' 14" N
Longitude 120° 35' 2" W
Elevation 369 ft
Type Large Airport

Weather

METAR
2014/07/13 05:55
KVBG 130555Z AUTO 33012KT 10SM OVC003 14/13 A3002 RMK AO2 SLP156 T01440133 10183 20144 50004 TSNO $ 
TAF
2014/07/11 23:18
TAF 
      AMD KVBG 1123/1304 29012KT 9999 BKN015 QNH3002INS 
      BECMG 1123/1124 29012KT 9999 BKN013 QNH3003INS 
      BECMG 1203/1204 32009KT 4800 BR OVC007 QNH3004INS 
      BECMG 1205/1206 33009KT 1600 BR OVC005 QNH3007INS 
      BECMG 1211/1212 33009KT 4800 BR OVC007 QNH3008INS 
      BECMG 1215/1216 32009KT 9999 NSW BKN010 QNH3009INS 
      BECMG 1218/1219 32012KT 9999 SCT010 QNH3004INS 
      BECMG 1223/1224 33012KT 9999 BKN080 QNH3005INS TX19/1123Z TN13/1212Z 
      AMD 112312 LAST NO 
      AMDS AFT 1200 NEXT 1314

Runways

12/30 15000 ft / 200 ft

Outbound flights

Inbound flights


Spotted incorrect airport information? Please login with your VATSIM ID.